Time;durP1;ratioP1;P1;durP2;ratioP2;P2;SDS_P1;SDS_P2;PMS_P1;PMS_P2;Temp;Humidity;BMP_temperature;BMP_pressure;BME280_temperature;BME280_humidity;BME280_pressure;Samples;Min_cycle;Max_cycle;Signal;HPM_P1;HPM_P2
2023/03/31 00:02:12;;;;;;;4.75;1.17;;;;;;;9.82;81.84;97887.34;4987921;28;20054;-46
2023/03/31 00:04:44;;;;;;;;;;;;;;;9.77;82.44;97880.59;4987918;28;20465;-47
2023/03/31 00:07:13;;;;;;;2.85;1.00;;;;;;;9.85;82.06;97871.75;4986719;28;20024;-44
2023/03/31 00:09:44;;;;;;;2.50;0.98;;;;;;;9.88;81.34;97861.31;4984593;28;20137;-45
2023/03/31 00:12:14;;;;;;;4.00;1.17;;;;;;;9.89;81.41;97860.38;4986389;28;20054;-45
2023/03/31 00:14:42;;;;;;;4.97;1.05;;;;;;;9.92;81.65;97852.53;4987748;28;20050;-46
2023/03/31 00:17:09;;;;;;;1.48;0.43;;;;;;;9.86;82.25;97834.66;4987571;28;20133;-45
2023/03/31 00:19:36;;;;;;;3.83;0.80;;;;;;;9.86;81.89;97826.91;4985178;28;20524;-47
2023/03/31 00:22:04;;;;;;;4.50;0.90;;;;;;;9.85;82.27;97820.88;4987932;28;20050;-48
2023/03/31 00:24:31;;;;;;;4.78;0.73;;;;;;;9.85;81.59;97805.38;4986312;28;20515;-45
2023/03/31 00:27:00;;;;;;;4.18;1.08;;;;;;;9.86;82.24;97796.72;4985643;28;20401;-46
2023/03/31 00:29:27;;;;;;;3.40;0.85;;;;;;;9.89;81.28;97788.84;4989554;28;20109;-45
2023/03/31 00:31:54;;;;;;;5.35;1.23;;;;;;;9.86;82.15;97781.19;4987924;28;20145;-45
2023/03/31 00:34:21;;;;;;;8.63;1.27;;;;;;;9.91;81.59;97773.28;4986833;28;20153;-44
2023/03/31 00:36:47;;;;;;;3.28;0.95;;;;;;;9.81;82.11;97756.41;4986610;28;20042;-45
2023/03/31 00:39:17;;;;;;;3.65;0.88;;;;;;;9.76;82.57;97753.97;4988917;28;20076;-47
2023/03/31 00:41:44;;;;;;;3.42;0.98;;;;;;;9.68;82.52;97743.94;4978208;28;20050;-44
2023/03/31 00:44:17;;;;;;;2.25;0.70;;;;;;;9.75;82.71;97742.81;4979979;28;20046;-44
2023/03/31 00:46:51;;;;;;;3.28;0.82;;;;;;;9.74;82.48;97727.34;4984033;28;20049;-43
2023/03/31 00:52:07;;;;;;;2.45;0.55;;;;;;;9.85;81.64;97711.44;5016187;28;20410;-44
2023/03/31 00:54:35;;;;;;;2.25;0.38;;;;;;;9.81;82.20;97704.69;4976974;28;20439;-46
2023/03/31 00:57:05;;;;;;;0.93;0.45;;;;;;;9.73;83.01;97710.16;4975106;28;20081;-46
2023/03/31 00:59:37;;;;;;;3.53;0.95;;;;;;;9.71;82.86;97689.53;4978338;28;20097;-45
2023/03/31 01:02:04;;;;;;;3.35;0.90;;;;;;;9.69;83.52;97681.00;4976558;28;20080;-46
2023/03/31 01:04:38;;;;;;;4.13;0.50;;;;;;;9.64;83.45;97675.16;5009819;28;20078;-47
2023/03/31 01:07:17;;;;;;;3.85;0.73;;;;;;;9.64;83.70;97668.25;5015089;28;20093;-48
2023/03/31 01:09:47;;;;;;;2.60;0.75;;;;;;;9.70;83.17;97662.03;4980049;28;20117;-44
2023/03/31 01:12:17;;;;;;;2.38;0.65;;;;;;;9.67;83.66;97651.78;4977370;28;20121;-45
2023/03/31 01:14:43;;;;;;;2.72;0.65;;;;;;;9.65;83.18;97632.91;4981851;28;20487;-46
2023/03/31 01:17:10;;;;;;;8.82;2.00;;;;;;;9.70;83.29;97631.00;4983878;28;20402;-46
2023/03/31 01:20:18;;;;;;;2.88;0.73;;;;;;;9.67;83.47;97625.09;4971777;28;20050;-44
2023/03/31 01:31:07;;;;;;;3.30;0.75;;;;;;;9.64;83.60;97585.56;5068776;27;20952;-45
2023/03/31 01:45:00;;;;;;;5.97;1.38;;;;;;;9.83;83.30;97527.13;5053517;28;20428;-45
2023/03/31 01:50:30;;;;;;;4.05;0.80;;;;;;;9.58;85.00;97517.75;5062790;27;20913;-46
2023/03/31 01:53:24;;;;;;;1.90;1.08;;;;;;;9.56;84.62;97501.47;5053157;28;20186;-45
2023/03/31 01:58:35;;;;;;;4.47;0.73;;;;;;;9.49;85.60;97475.84;5037495;27;20401;-46
2023/03/31 02:01:08;;;;;;;3.55;1.02;;;;;;;9.48;85.89;97461.28;5019069;28;20049;-45
2023/03/31 02:03:42;;;;;;;2.70;0.73;;;;;;;9.50;85.99;97454.28;5024941;28;20504;-45
2023/03/31 02:06:15;;;;;;;3.78;0.65;;;;;;;9.48;85.73;97450.94;5036825;28;20053;-45
2023/03/31 02:08:46;;;;;;;10.20;1.05;;;;;;;9.50;86.18;97436.19;5037266;28;20049;-44
2023/03/31 02:11:13;;;;;;;4.85;0.73;;;;;;;9.49;86.00;97426.78;5038550;28;20103;-45
2023/03/31 02:13:45;;;;;;;1.95;0.60;;;;;;;9.56;85.52;97414.44;5040484;28;20045;-46
2023/03/31 02:16:17;;;;;;;2.40;1.00;;;;;;;9.59;85.23;97400.56;5033520;28;20041;-46
2023/03/31 02:18:48;;;;;;;4.10;1.13;;;;;;;9.56;86.21;97393.75;5045888;28;20103;-48
2023/03/31 02:21:16;;;;;;;1.55;0.40;;;;;;;9.56;86.10;97385.19;5039676;28;20049;-45
2023/03/31 02:23:44;;;;;;;2.03;0.73;;;;;;;9.52;86.06;97374.97;5040058;28;20081;-47
2023/03/31 02:26:15;;;;;;;3.65;0.93;;;;;;;9.56;85.97;97372.25;5039912;28;20045;-45
2023/03/31 02:28:42;;;;;;;3.00;0.90;;;;;;;9.52;86.14;97359.47;5036116;28;20142;-47
2023/03/31 02:33:48;;;;;;;3.80;0.70;;;;;;;9.59;85.95;97341.13;5109126;27;20401;-45
2023/03/31 02:36:15;;;;;;;1.75;1.65;;;;;;;9.57;86.16;97330.88;5096837;28;20470;-47
2023/03/31 02:38:47;;;;;;;1.33;0.57;;;;;;;9.55;86.41;97330.06;5098775;27;20054;-45
2023/03/31 02:41:13;;;;;;;1.67;1.00;;;;;;;9.51;86.37;97325.94;5094173;28;20039;-47
2023/03/31 02:43:40;;;;;;;2.80;0.60;;;;;;;9.49;87.02;97312.25;5091958;28;20052;-45
2023/03/31 02:46:07;;;;;;;2.63;0.70;;;;;;;9.49;86.66;97302.75;5092416;28;20075;-46
2023/03/31 02:48:39;;;;;;;0.82;0.63;;;;;;;9.47;86.42;97291.66;5101060;28;20073;-45
2023/03/31 02:59:15;;;;;;;3.90;1.23;;;;;;;9.55;86.07;97264.66;5015347;27;20410;-47
2023/03/31 03:07:23;;;;;;;2.28;0.70;;;;;;;9.51;86.25;97233.78;5025279;27;20382;-46
2023/03/31 03:15:33;;;;;;;2.05;0.47;;;;;;;9.57;86.29;97224.06;5029849;27;20407;-46
2023/03/31 03:18:00;;;;;;;1.55;0.47;;;;;;;9.55;86.04;97207.81;4980008;28;20046;-45
2023/03/31 03:20:27;;;;;;;3.60;0.85;;;;;;;9.52;85.66;97199.28;4977639;28;20079;-47
2023/03/31 03:22:54;;;;;;;1.58;0.40;;;;;;;9.48;86.02;97192.56;4976981;28;20752;-48
2023/03/31 03:25:20;;;;;;;3.00;0.70;;;;;;;9.51;85.90;97184.69;4979513;28;20138;-48
2023/03/31 03:27:47;;;;;;;2.83;0.40;;;;;;;9.54;86.13;97188.03;4986281;28;20051;-48
2023/03/31 03:30:14;;;;;;;1.65;0.50;;;;;;;9.51;85.75;97171.75;4979287;28;20134;-46
2023/03/31 03:32:40;;;;;;;1.58;1.35;;;;;;;9.50;85.97;97170.06;4977114;28;20810;-46
2023/03/31 03:35:08;;;;;;;1.85;0.52;;;;;;;9.55;85.96;97156.94;4977497;28;20049;-44
2023/03/31 03:37:35;;;;;;;5.95;0.55;;;;;;;9.52;85.78;97162.25;4978160;28;20097;-44
2023/03/31 03:40:04;;;;;;;3.53;0.75;;;;;;;9.51;85.90;97145.94;4978897;28;20105;-46
2023/03/31 03:42:32;;;;;;;1.45;0.82;;;;;;;9.45;85.64;97146.19;4972490;28;20130;-47
2023/03/31 03:45:00;;;;;;;3.22;0.60;;;;;;;9.49;86.35;97142.56;4966723;28;20086;-47
2023/03/31 03:47:27;;;;;;;4.93;0.70;;;;;;;9.56;85.68;97131.97;4974653;28;20101;-48
2023/03/31 03:49:54;;;;;;;2.63;0.50;;;;;;;9.54;85.04;97128.59;4977729;28;20083;-45
2023/03/31 03:52:21;;;;;;;2.33;0.98;;;;;;;9.59;85.75;97116.31;4979821;28;20069;-48
2023/03/31 03:54:47;;;;;;;2.05;0.50;;;;;;;9.56;85.22;97116.44;4977730;28;20152;-44
2023/03/31 03:57:14;;;;;;;1.13;0.45;;;;;;;9.57;84.97;97112.97;4978748;28;20110;-48
2023/03/31 03:59:41;;;;;;;3.53;0.70;;;;;;;9.57;84.78;97102.63;4980694;28;20058;-47
2023/03/31 04:02:07;;;;;;;4.22;0.75;;;;;;;9.57;84.89;97095.72;4980537;28;20479;-47
2023/03/31 04:04:34;;;;;;;4.53;0.65;;;;;;;9.67;84.75;97096.13;4978489;28;20117;-46
2023/03/31 04:07:00;;;;;;;13.80;0.73;;;;;;;9.71;84.85;97089.91;4981789;28;20046;-46
2023/03/31 04:09:27;;;;;;;4.32;0.63;;;;;;;9.73;84.10;97082.91;4976926;28;20419;-47
2023/03/31 04:11:54;;;;;;;1.85;0.55;;;;;;;9.73;84.57;97077.72;4980806;28;20081;-46
2023/03/31 04:14:20;;;;;;;1.70;0.40;;;;;;;9.69;84.15;97065.88;4976008;28;20137;-44
2023/03/31 04:16:47;;;;;;;2.10;0.68;;;;;;;9.68;84.00;97063.34;4977250;28;20090;-46
2023/03/31 04:19:16;;;;;;;1.15;0.40;;;;;;;9.67;84.29;97057.38;4973597;28;20055;-46
2023/03/31 04:21:44;;;;;;;1.88;0.40;;;;;;;9.74;83.53;97050.16;4980283;28;20066;-47
2023/03/31 04:24:15;;;;;;;2.90;1.13;;;;;;;9.70;84.15;97041.72;4974175;28;20133;-45
2023/03/31 04:26:41;;;;;;;0.82;0.47;;;;;;;9.75;83.91;97042.31;4968069;28;20095;-47
2023/03/31 04:29:11;;;;;;;1.55;0.50;;;;;;;9.75;84.04;97038.88;4962702;28;20382;-47
2023/03/31 04:31:41;;;;;;;3.58;0.70;;;;;;;9.68;84.65;97028.00;4962088;28;20054;-44
2023/03/31 04:34:13;;;;;;;2.35;0.43;;;;;;;9.68;84.80;97029.75;4963066;28;20583;-44
2023/03/31 04:36:45;;;;;;;0.73;0.30;;;;;;;9.72;85.21;97019.19;4965443;28;20495;-43
2023/03/31 04:39:15;;;;;;;3.40;0.90;;;;;;;9.74;84.53;97024.31;4965630;28;20053;-45
2023/03/31 04:41:42;;;;;;;2.95;0.50;;;;;;;9.70;85.04;97018.47;4967842;28;20047;-45
2023/03/31 04:44:09;;;;;;;3.90;0.75;;;;;;;9.75;85.04;97013.03;4963766;28;20042;-44
2023/03/31 04:46:36;;;;;;;2.55;0.68;;;;;;;9.69;84.87;97016.75;4966137;28;20047;-47
2023/03/31 04:49:04;;;;;;;1.23;0.45;;;;;;;9.67;85.59;97005.69;4964950;28;20129;-45
2023/03/31 04:51:31;;;;;;;4.75;0.90;;;;;;;9.76;84.79;97000.06;4963042;28;20046;-47
2023/03/31 04:53:58;;;;;;;4.60;0.40;;;;;;;9.72;85.27;96995.09;4965872;28;20135;-47
2023/03/31 04:56:25;;;;;;;8.60;1.27;;;;;;;9.73;84.92;96989.03;4962945;28;20130;-45
2023/03/31 04:58:52;;;;;;;8.05;0.98;;;;;;;9.75;84.51;96982.88;4962638;28;20075;-45
2023/03/31 05:01:19;;;;;;;2.80;0.57;;;;;;;9.72;84.90;96977.84;4964777;28;20058;-44
2023/03/31 05:03:46;;;;;;;1.88;0.73;;;;;;;9.76;84.37;96974.19;4961740;28;20146;-43
2023/03/31 05:06:15;;;;;;;2.70;0.50;;;;;;;9.82;84.47;96964.47;4963330;28;20049;-48
2023/03/31 05:08:43;;;;;;;2.75;0.75;;;;;;;9.78;84.81;96971.53;4959979;28;20891;-47
2023/03/31 05:11:10;;;;;;;1.15;0.43;;;;;;;9.76;84.59;96969.03;4968097;28;20411;-44
2023/03/31 05:13:36;;;;;;;5.65;1.20;;;;;;;9.80;84.39;96949.06;4966756;28;20050;-46
2023/03/31 05:16:09;;;;;;;2.80;0.65;;;;;;;9.74;84.55;96950.19;4966808;28;20098;-48
2023/03/31 05:18:36;;;;;;;6.35;0.95;;;;;;;9.73;84.98;96952.84;4961586;28;20140;-47
2023/03/31 05:21:20;;;;;;;4.10;0.77;;;;;;;9.72;84.58;96949.41;4961228;28;20059;-47
2023/03/31 05:23:47;;;;;;;1.02;0.40;;;;;;;9.77;84.47;96944.84;4955509;28;20106;-46
2023/03/31 05:26:14;;;;;;;2.88;0.80;;;;;;;9.71;85.03;96936.56;4963733;28;20082;-46
2023/03/31 05:28:41;;;;;;;1.05;0.60;;;;;;;9.73;84.08;96933.00;4961873;28;20551;-48
2023/03/31 05:31:08;;;;;;;3.47;0.77;;;;;;;9.81;83.82;96931.78;4946740;28;20054;-45
2023/03/31 05:33:40;;;;;;;1.30;0.50;;;;;;;9.79;84.17;96937.03;4970377;28;20846;-46
2023/03/31 05:36:08;;;;;;;3.75;0.90;;;;;;;9.76;84.67;96932.84;4964330;28;20050;-46
2023/03/31 05:38:36;;;;;;;4.20;0.60;;;;;;;9.80;84.62;96932.69;4963601;28;20054;-45
2023/03/31 05:41:02;;;;;;;3.72;0.43;;;;;;;9.79;84.56;96931.84;4964962;28;20070;-45
2023/03/31 05:43:29;;;;;;;1.65;0.47;;;;;;;9.72;84.73;96921.00;4958740;28;20569;-46
2023/03/31 05:45:55;;;;;;;1.45;0.40;;;;;;;9.71;84.76;96921.91;4959505;28;20150;-43
2023/03/31 05:48:22;;;;;;;1.63;0.65;;;;;;;9.73;84.85;96917.50;4964303;28;20055;-46
2023/03/31 05:50:49;;;;;;;2.35;0.43;;;;;;;9.71;85.26;96919.34;4963963;28;20109;-48
2023/03/31 05:53:15;;;;;;;3.85;0.50;;;;;;;9.71;85.66;96921.06;4966625;28;20129;-45
2023/03/31 05:55:42;;;;;;;0.93;0.35;;;;;;;9.72;85.54;96913.25;4965785;28;20562;-47
2023/03/31 05:58:08;;;;;;;0.95;0.30;;;;;;;9.73;85.30;96911.50;4966657;28;20100;-44
2023/03/31 06:00:36;;;;;;;1.55;0.73;;;;;;;9.73;84.96;96906.34;4963720;28;20070;-46
2023/03/31 06:03:03;;;;;;;2.22;0.50;;;;;;;9.85;85.06;96904.88;4960606;28;20046;-46
2023/03/31 06:05:31;;;;;;;1.33;0.43;;;;;;;9.81;85.07;96895.59;4962766;28;20725;-45
2023/03/31 06:07:57;;;;;;;2.55;0.43;;;;;;;9.79;84.64;96898.25;4964206;28;20664;-48
2023/03/31 06:10:24;;;;;;;3.15;0.30;;;;;;;9.82;84.41;96897.25;4962566;28;20151;-48
2023/03/31 06:12:51;;;;;;;1.77;0.43;;;;;;;9.75;84.70;96894.16;4961538;28;20077;-45
2023/03/31 06:15:17;;;;;;;0.85;0.50;;;;;;;9.82;84.45;96894.66;4961762;28;20074;-46
2023/03/31 06:17:44;;;;;;;3.40;0.50;;;;;;;9.80;85.01;96896.53;4963604;28;20443;-44
2023/03/31 06:20:11;;;;;;;2.58;0.57;;;;;;;9.81;84.84;96883.53;4955596;28;20051;-46
2023/03/31 06:22:53;;;;;;;1.92;0.30;;;;;;;9.87;85.30;96884.97;4959521;28;20043;-45
2023/03/31 06:25:20;;;;;;;3.25;0.43;;;;;;;9.94;84.77;96886.31;4961669;28;20080;-45
2023/03/31 06:27:47;;;;;;;0.70;0.35;;;;;;;9.82;85.43;96886.91;4961117;28;20109;-45
2023/03/31 06:30:14;;;;;;;2.30;0.43;;;;;;;9.85;84.99;96889.34;4957228;28;20047;-46
2023/03/31 06:32:41;;;;;;;1.95;0.32;;;;;;;9.94;85.02;96888.91;4959504;28;20050;-45
2023/03/31 06:35:08;;;;;;;2.88;0.40;;;;;;;9.82;85.40;96884.34;4962432;28;20047;-48
2023/03/31 06:37:35;;;;;;;1.92;0.30;;;;;;;9.86;85.13;96880.72;4961224;28;20050;-46
2023/03/31 06:40:01;;;;;;;4.20;1.08;;;;;;;9.90;84.90;96879.63;4962632;28;20412;-44
2023/03/31 06:42:28;;;;;;;4.28;0.60;;;;;;;9.99;85.32;96880.91;4963233;28;20047;-44
2023/03/31 06:44:55;;;;;;;5.57;0.93;;;;;;;10.00;84.78;96880.81;4963666;28;20055;-43
2023/03/31 06:47:21;;;;;;;6.45;1.40;;;;;;;10.02;85.36;96884.19;4963312;28;20798;-45
2023/03/31 06:49:48;;;;;;;0.55;0.35;;;;;;;9.99;85.29;96880.91;4961469;28;20050;-45
2023/03/31 06:52:15;;;;;;;5.32;0.88;;;;;;;10.09;85.14;96883.84;4962512;28;20054;-43
2023/03/31 06:54:42;;;;;;;1.73;0.95;;;;;;;9.97;85.45;96870.63;4965834;28;20041;-44
2023/03/31 06:57:09;;;;;;;4.13;0.60;;;;;;;10.03;84.98;96878.06;4957326;28;21916;-44
2023/03/31 06:59:36;;;;;;;3.05;0.32;;;;;;;10.08;84.40;96879.59;4961494;28;20050;-46
2023/03/31 07:02:03;;;;;;;3.67;0.60;;;;;;;10.11;84.05;96879.44;4966063;28;20066;-45
2023/03/31 07:04:30;;;;;;;2.65;0.45;;;;;;;10.13;84.64;96869.84;4960732;28;20051;-50
2023/03/31 07:06:58;;;;;;;2.35;0.40;;;;;;;10.09;84.81;96876.06;4960829;28;20081;-45
2023/03/31 07:09:24;;;;;;;5.53;0.50;;;;;;;10.12;84.30;96873.34;4962838;28;20140;-44
2023/03/31 07:11:51;;;;;;;3.15;0.52;;;;;;;10.16;84.25;96872.25;4962040;28;20105;-45
2023/03/31 07:14:17;;;;;;;2.88;0.47;;;;;;;10.12;84.60;96870.75;4964008;28;20105;-47
2023/03/31 07:16:44;;;;;;;0.80;0.35;;;;;;;10.07;84.22;96872.75;4959026;28;20105;-43
2023/03/31 07:19:11;;;;;;;2.03;0.40;;;;;;;10.08;84.72;96866.66;4958763;28;20047;-47
2023/03/31 07:21:38;;;;;;;7.90;0.60;;;;;;;10.10;84.54;96867.44;4956677;28;20129;-45
2023/03/31 07:24:04;;;;;;;4.45;0.60;;;;;;;10.14;83.99;96868.94;4954494;28;20097;-46
2023/03/31 07:26:33;;;;;;;2.67;0.40;;;;;;;10.13;84.30;96862.91;4954016;28;20083;-45
2023/03/31 07:29:00;;;;;;;1.30;0.65;;;;;;;10.18;84.32;96869.59;4954095;28;20054;-48
2023/03/31 07:31:27;;;;;;;1.15;0.77;;;;;;;10.12;84.67;96870.75;4954954;28;20113;-47
2023/03/31 07:33:53;;;;;;;1.95;0.63;;;;;;;10.21;83.92;96869.44;4951456;28;20069;-46
2023/03/31 07:36:20;;;;;;;3.30;0.50;;;;;;;10.23;84.03;96872.81;4957199;28;20075;-45
2023/03/31 07:38:48;;;;;;;3.08;0.30;;;;;;;10.22;84.20;96866.78;4967808;28;20070;-44
2023/03/31 07:41:18;;;;;;;1.67;0.40;;;;;;;10.29;83.86;96868.13;4957723;28;20070;-46
2023/03/31 07:43:45;;;;;;;1.02;0.60;;;;;;;10.36;83.60;96867.78;4960383;28;20070;-46
2023/03/31 07:46:16;;;;;;;5.75;0.77;;;;;;;10.42;83.26;96862.31;4962623;28;20047;-46
2023/03/31 07:48:43;;;;;;;3.42;0.47;;;;;;;10.47;83.50;96865.50;4962566;28;20050;-45
2023/03/31 07:51:10;;;;;;;1.95;1.75;;;;;;;10.45;83.98;96864.75;4963667;28;20595;-44
2023/03/31 07:53:36;;;;;;;2.20;0.43;;;;;;;10.53;83.21;96869.50;4963867;28;20050;-46
2023/03/31 07:56:03;;;;;;;1.77;0.40;;;;;;;10.56;84.37;96863.31;4956859;28;20490;-49
2023/03/31 07:58:30;;;;;;;0.77;0.52;;;;;;;10.59;84.20;96869.19;4961457;28;20054;-50
2023/03/31 08:00:57;;;;;;;1.05;0.50;;;;;;;10.60;84.25;96870.03;4959013;28;20055;-45
2023/03/31 08:03:23;;;;;;;2.38;0.68;;;;;;;10.60;83.87;96870.03;4968273;28;20110;-48
2023/03/31 08:05:51;;;;;;;1.75;0.32;;;;;;;10.66;83.77;96869.69;4960387;28;20051;-47
2023/03/31 08:08:18;;;;;;;6.07;0.50;;;;;;;10.74;83.62;96874.47;4967688;28;20047;-45
2023/03/31 08:10:45;;;;;;;3.03;0.70;;;;;;;10.72;83.90;96874.53;4960474;28;20106;-44
2023/03/31 08:13:11;;;;;;;2.38;0.52;;;;;;;10.78;83.59;96874.19;4960128;28;20129;-46
2023/03/31 08:15:38;;;;;;;1.50;0.57;;;;;;;10.81;84.57;96868.03;4968365;28;20046;-45
2023/03/31 08:18:04;;;;;;;1.48;0.35;;;;;;;10.89;83.40;96865.84;4963236;28;20093;-45
2023/03/31 08:20:31;;;;;;;1.65;0.47;;;;;;;10.91;83.45;96869.19;4958701;28;20045;-47
2023/03/31 08:22:59;;;;;;;1.40;0.47;;;;;;;10.96;83.28;96871.53;4954955;28;20094;-46
2023/03/31 08:25:25;;;;;;;2.85;0.50;;;;;;;11.00;83.37;96873.00;4953752;28;20074;-45
2023/03/31 08:27:52;;;;;;;2.40;0.20;;;;;;;11.04;82.78;96869.34;4958630;28;20109;-45
2023/03/31 08:30:19;;;;;;;0.45;0.35;;;;;;;11.05;82.78;96863.22;4967388;28;20081;-45
2023/03/31 08:32:47;;;;;;;2.58;1.27;;;;;;;11.07;82.65;96872.69;4965247;28;20694;-46
2023/03/31 08:35:14;;;;;;;0.28;0.13;;;;;;;11.08;83.15;96869.16;4961156;28;20047;-47
2023/03/31 08:37:41;;;;;;;1.55;0.50;;;;;;;11.11;83.27;96869.00;4955976;28;20130;-47
2023/03/31 08:40:17;;;;;;;0.93;0.55;;;;;;;11.14;82.97;96871.41;4960879;28;20074;-46
2023/03/31 08:42:46;;;;;;;;;;;;;;;11.10;83.46;96875.06;4969024;28;20098;-43
2023/03/31 08:45:36;;;;;;;0.63;0.30;;;;;;;11.18;83.07;96872.91;4967064;28;19937;-44
2023/03/31 08:48:09;;;;;;;3.15;0.32;;;;;;;11.28;83.02;96879.22;4969310;28;20626;-47
2023/03/31 08:50:46;;;;;;;3.15;0.22;;;;;;;11.34;82.43;96874.66;4962454;28;20124;-44
2023/03/31 08:53:23;;;;;;;0.43;0.30;;;;;;;11.40;82.95;96874.28;4959917;28;20086;-46
2023/03/31 08:55:53;;;;;;;4.65;2.15;;;;;;;11.48;82.25;96873.84;4973243;28;20594;-45
2023/03/31 09:01:21;;;;;;;1.92;0.57;;;;;;;11.63;81.62;96879.88;5047564;27;20414;-45
2023/03/31 09:06:37;;;;;;;1.58;1.17;;;;;;;11.79;81.91;96880.66;5049748;27;20410;-47
2023/03/31 09:09:09;;;;;;;2.47;1.00;;;;;;;11.90;81.05;96881.78;4992074;28;20125;-46
2023/03/31 09:22:28;;;;;;;2.88;2.38;;;;;;;12.52;82.73;96887.66;5039814;28;20410;-45
2023/03/31 09:27:36;;;;;;;2.70;0.60;;;;;;;12.67;82.02;96896.28;5028066;27;20411;-47
2023/03/31 09:32:48;;;;;;;5.13;0.82;;;;;;;12.81;81.72;96891.06;5033663;28;20400;-47
2023/03/31 09:35:17;;;;;;;;;;;;;;;12.79;81.46;96902.44;5006367;28;20088;-49
2023/03/31 09:37:44;;;;;;;6.88;1.67;;;;;;;12.92;82.15;96900.75;5012769;28;20362;-46
2023/03/31 09:40:16;;;;;;;9.30;3.00;;;;;;;13.00;81.58;96902.06;4999888;28;20048;-50
2023/03/31 09:42:45;;;;;;;7.63;2.30;;;;;;;13.07;80.86;96903.34;4981829;28;20417;-45
2023/03/31 09:45:15;;;;;;;9.82;2.90;;;;;;;13.09;80.84;96904.91;4982420;28;20053;-44
2023/03/31 09:47:45;;;;;;;5.43;1.33;;;;;;;13.15;81.14;96905.44;4997583;28;20062;-46
2023/03/31 09:50:13;;;;;;;7.20;1.50;;;;;;;13.23;81.55;96904.00;5019758;28;20065;-46
2023/03/31 09:52:46;;;;;;;5.32;1.17;;;;;;;13.33;80.77;96909.44;5008034;28;20505;-45
2023/03/31 09:55:25;;;;;;;3.72;1.00;;;;;;;13.44;81.50;96910.53;5008798;28;20716;-49
2023/03/31 09:58:10;;;;;;;1.00;0.47;;;;;;;13.56;81.30;96914.09;5006760;28;20136;-46
2023/03/31 10:00:42;;;;;;;2.92;0.93;;;;;;;13.70;80.86;96923.59;5002470;28;20056;-48
2023/03/31 10:03:12;;;;;;;5.35;0.68;;;;;;;13.86;80.71;96921.66;4992698;28;20046;-47
2023/03/31 10:05:49;;;;;;;2.70;0.77;;;;;;;14.05;80.89;96928.22;4991480;28;20058;-45
2023/03/31 10:16:29;;;;;;;2.08;1.30;;;;;;;14.61;79.90;96924.47;5035785;27;20398;-46
2023/03/31 10:22:01;;;;;;;1.05;0.68;;;;;;;14.75;78.28;96933.06;5017491;28;20457;-46
2023/03/31 10:24:37;;;;;;;1.48;0.60;;;;;;;14.58;78.36;96937.69;4979975;28;20086;-47
2023/03/31 10:27:06;;;;;;;1.52;1.20;;;;;;;14.60;78.41;96938.44;4969105;28;20074;-55
2023/03/31 10:29:33;;;;;;;2.47;0.77;;;;;;;14.73;78.44;96937.56;4964084;28;20519;-50
2023/03/31 10:32:04;;;;;;;0.50;0.30;;;;;;;14.83;78.97;96945.59;4971263;28;20078;-51
2023/03/31 10:34:41;;;;;;;0.57;0.57;;;;;;;14.78;77.49;96953.72;4970107;28;20051;-50
2023/03/31 10:37:16;;;;;;;0.43;0.35;;;;;;;14.79;76.87;96950.19;4969690;28;20058;-50
2023/03/31 10:39:46;;;;;;;0.50;0.40;;;;;;;15.01;78.55;96949.53;4969845;28;20170;-48
2023/03/31 10:42:21;;;;;;;0.77;0.63;;;;;;;15.25;78.33;96953.09;4968955;28;20051;-48
2023/03/31 10:44:48;;;;;;;0.63;0.50;;;;;;;15.37;77.41;96949.59;4969292;28;20145;-48
2023/03/31 10:47:19;;;;;;;0.50;0.50;;;;;;;15.48;77.12;96961.03;4966727;28;20146;-47
2023/03/31 10:49:50;;;;;;;0.50;0.20;;;;;;;15.59;76.96;96955.84;4966820;28;20696;-48
2023/03/31 10:52:20;;;;;;;0.32;0.30;;;;;;;15.61;74.69;96969.63;4968556;28;20071;-47
2023/03/31 10:54:51;;;;;;;0.55;0.43;;;;;;;15.58;74.95;96962.03;4988605;28;20553;-49
2023/03/31 10:57:26;;;;;;;0.80;0.60;;;;;;;15.52;74.89;96972.91;4988871;28;20086;-48
2023/03/31 11:05:21;;;;;;;0.75;0.17;;;;;;;15.38;74.08;96993.00;5051732;28;20938;-47
2023/03/31 11:08:00;;;;;;;0.50;0.30;;;;;;;15.32;73.63;96988.19;5014886;28;20490;-48
2023/03/31 11:13:33;;;;;;;2.35;2.25;;;;;;;15.33;74.25;97000.28;5023078;27;20407;-46
2023/03/31 11:19:10;;;;;;;0.57;0.45;;;;;;;15.33;73.91;97005.50;5019662;27;20415;-46
2023/03/31 11:32:44;;;;;;;1.50;1.40;;;;;;;14.07;71.71;97030.47;5062005;27;20394;-46
2023/03/31 11:43:41;;;;;;;1.80;1.70;;;;;;;13.69;73.52;97059.78;5017346;27;20770;-47
2023/03/31 11:46:14;;;;;;;9.18;2.25;;;;;;;13.63;74.04;97066.19;5007533;28;20073;-45
2023/03/31 11:48:46;;;;;;;3.47;1.40;;;;;;;13.55;75.04;97069.31;5008590;28;20049;-46
2023/03/31 11:51:21;;;;;;;2.22;2.05;;;;;;;13.48;74.79;97070.59;5010653;28;20066;-48
2023/03/31 11:53:51;;;;;;;3.05;1.80;;;;;;;13.41;75.54;97077.91;5007086;28;20149;-46
2023/03/31 11:56:18;;;;;;;2.20;2.10;;;;;;;13.41;76.20;97087.50;5019499;28;20046;-46
2023/03/31 11:58:52;;;;;;;1.95;1.85;;;;;;;13.34;75.73;97089.66;5005863;28;20045;-48
2023/03/31 12:01:26;;;;;;;2.05;1.95;;;;;;;13.31;75.90;97092.44;5000889;28;20074;-47
2023/03/31 12:04:33;;;;;;;1.65;1.55;;;;;;;13.24;76.11;97091.94;5009806;28;20072;-45
2023/03/31 12:07:09;;;;;;;2.03;1.92;;;;;;;13.27;75.94;97099.56;5008703;28;20057;-46
2023/03/31 12:12:21;;;;;;;0.73;0.28;;;;;;;13.34;76.19;97111.25;5045901;27;20398;-45
2023/03/31 12:14:54;;;;;;;0.70;0.40;;;;;;;13.31;76.56;97114.03;5018084;28;20196;-45
2023/03/31 12:17:25;;;;;;;1.42;0.68;;;;;;;13.34;76.54;97113.84;5015913;28;20053;-44
2023/03/31 12:19:59;;;;;;;1.45;0.75;;;;;;;13.36;76.74;97119.81;5015587;28;20056;-46
2023/03/31 12:22:39;;;;;;;3.70;1.20;;;;;;;13.35;76.51;97130.28;5019429;28;20104;-47
2023/03/31 12:25:13;;;;;;;0.98;0.50;;;;;;;13.43;76.09;97133.25;5021289;28;20049;-47
2023/03/31 12:27:46;;;;;;;2.28;0.73;;;;;;;13.42;76.58;97134.19;5019036;28;20048;-46
2023/03/31 12:57:28;;;;;;;3.33;1.45;;;;;;;13.85;75.17;97179.31;5027238;28;20392;-46
2023/03/31 13:03:32;;;;;;;2.63;1.75;;;;;;;13.70;75.71;97191.47;5029852;28;20444;-47
2023/03/31 13:06:00;;;;;;;3.85;2.10;;;;;;;13.77;75.68;97192.78;4968723;28;20054;-49
2023/03/31 13:09:07;;;;;;;2.25;1.75;;;;;;;13.77;75.79;97197.97;4975780;28;20051;-46
2023/03/31 13:14:20;;;;;;;1.92;0.65;;;;;;;13.70;74.99;97201.88;5085997;27;20398;-47
2023/03/31 13:16:53;;;;;;;2.83;0.85;;;;;;;13.65;74.41;97209.16;5021757;28;20089;-46
2023/03/31 13:19:40;;;;;;;2.65;0.63;;;;;;;13.51;74.23;97210.81;5024877;28;20096;-45
2023/03/31 13:22:28;;;;;;;1.00;0.60;;;;;;;13.53;74.84;97216.75;5032724;28;20038;-48
2023/03/31 13:25:25;;;;;;;3.13;0.60;;;;;;;13.62;75.76;97218.78;5015144;28;20046;-47
2023/03/31 13:27:52;;;;;;;4.78;0.68;;;;;;;13.78;75.70;97215.25;5025937;28;20459;-45
2023/03/31 13:33:14;;;;;;;2.10;0.90;;;;;;;13.91;75.28;97230.13;5054837;27;20373;-45
2023/03/31 13:35:48;;;;;;;1.83;0.85;;;;;;;14.00;75.00;97239.94;5021287;28;20045;-47
2023/03/31 14:00:40;;;;;;;1.00;0.40;;;;;;;13.65;73.63;97292.38;5033117;27;20409;-45
2023/03/31 14:03:22;;;;;;;1.38;0.55;;;;;;;13.67;73.89;97295.69;4998258;28;20076;-47
2023/03/31 14:06:01;;;;;;;2.88;1.38;;;;;;;13.58;74.27;97294.50;5001927;28;20474;-47
2023/03/31 14:09:06;;;;;;;0.98;0.55;;;;;;;13.40;74.08;97304.19;5003618;28;20073;-47
2023/03/31 14:11:33;;;;;;;1.77;1.02;;;;;;;13.36;73.97;97309.56;5011807;28;20074;-45
2023/03/31 14:14:17;;;;;;;2.72;0.85;;;;;;;13.21;73.82;97315.66;4992630;28;20096;-48
2023/03/31 14:16:49;;;;;;;0.95;0.85;;;;;;;13.19;74.53;97328.75;5033146;28;20042;-48
2023/03/31 14:25:36;;;;;;;4.00;1.38;;;;;;;13.45;74.87;97341.16;5085576;27;20414;-45
2023/03/31 14:31:20;;;;;;;4.47;0.77;;;;;;;13.14;75.89;97351.53;5034597;27;20402;-49
2023/03/31 14:39:23;;;;;;;2.80;2.40;;;;;;;12.83;75.31;97364.50;5077652;27;20404;-45
2023/03/31 14:41:54;;;;;;;1.58;0.30;;;;;;;12.77;75.69;97380.41;5042191;28;20430;-46
2023/03/31 14:44:21;;;;;;;3.10;1.92;;;;;;;12.71;76.42;97373.78;5038722;28;20644;-45
2023/03/31 14:46:50;;;;;;;3.50;1.65;;;;;;;12.72;76.09;97379.81;5017520;28;20050;-48
2023/03/31 14:49:26;;;;;;;3.30;1.60;;;;;;;12.65;76.34;97386.28;5022343;28;20066;-48
2023/03/31 14:51:57;;;;;;;3.85;2.20;;;;;;;12.66;77.53;97393.16;5043300;28;20073;-46
2023/03/31 14:54:24;;;;;;;3.20;1.92;;;;;;;12.66;76.64;97399.16;5041805;28;20069;-45
2023/03/31 14:56:54;;;;;;;2.30;2.10;;;;;;;12.65;77.34;97402.69;5039383;28;20084;-46
2023/03/31 14:59:26;;;;;;;2.17;1.90;;;;;;;12.65;77.60;97407.03;5055392;28;20048;-48
2023/03/31 15:01:55;;;;;;;4.85;2.53;;;;;;;12.69;77.39;97405.94;5036079;28;20072;-47
2023/03/31 15:04:26;;;;;;;1.75;1.65;;;;;;;12.63;77.61;97408.91;5040142;28;20091;-45